createdAt,value
2018-04-14T00:01:44.464Z,86.69
2018-04-14T00:04:12.763Z,87.43
2018-04-14T00:06:42.192Z,87.15
2018-04-14T00:09:11.355Z,86.67
2018-04-14T00:11:41.685Z,86.85
2018-04-14T00:14:09.962Z,86.54
2018-04-14T00:16:38.247Z,86.02
2018-04-14T00:19:08.292Z,86.07
2018-04-14T00:21:37.214Z,85.81
2018-04-14T00:24:05.490Z,86.42
2018-04-14T00:26:33.766Z,86.42
2018-04-14T00:29:02.406Z,86.36
2018-04-14T00:31:32.279Z,86.70
2018-04-14T00:34:00.548Z,86.57
2018-04-14T00:36:29.232Z,86.14
2018-04-14T00:38:59.011Z,86.80
2018-04-14T00:41:27.294Z,87.09
2018-04-14T00:43:55.561Z,86.74
2018-04-14T00:46:23.975Z,87.05
2018-04-14T00:48:52.329Z,87.07
2018-04-14T00:51:21.352Z,87.06
2018-04-14T00:53:51.243Z,87.15
2018-04-14T00:56:19.711Z,86.94
2018-04-14T00:58:48.838Z,87.28
2018-04-14T01:01:17.122Z,86.82
2018-04-14T01:03:45.417Z,87.00
2018-04-14T01:06:13.874Z,87.32
2018-04-14T01:08:42.153Z,87.44
2018-04-14T01:11:10.447Z,87.69
2018-04-14T01:13:38.821Z,87.68
2018-04-14T01:16:08.558Z,87.56
2018-04-14T01:18:36.870Z,87.42
2018-04-14T01:21:05.906Z,87.36
2018-04-14T01:23:34.184Z,87.65
2018-04-14T01:26:02.567Z,87.56
2018-04-14T01:28:30.900Z,87.55
2018-04-14T01:31:00.027Z,87.26
2018-04-14T01:33:29.970Z,87.74
2018-04-14T01:36:01.442Z,87.12
2018-04-14T01:38:32.583Z,88.10
2018-04-14T01:41:01.187Z,87.80
2018-04-14T01:43:30.234Z,88.14
2018-04-14T01:45:58.694Z,88.33
2018-04-14T01:48:27.041Z,88.34
2018-04-14T01:50:56.098Z,88.72
2018-04-14T01:53:24.689Z,88.95
2018-04-14T01:55:53.002Z,89.20
2018-04-14T01:58:22.055Z,89.66
2018-04-14T02:00:50.350Z,90.08
2018-04-14T02:03:18.795Z,90.28
2018-04-14T02:05:47.806Z,90.54
2018-04-14T02:08:16.090Z,90.44
2018-04-14T02:10:44.667Z,91.12
2018-04-14T02:13:13.175Z,91.09
2018-04-14T02:15:42.138Z,91.00
2018-04-14T02:18:10.454Z,90.93
2018-04-14T02:20:40.673Z,91.02
2018-04-14T02:23:10.042Z,91.04
2018-04-14T02:25:38.423Z,91.07
2018-04-14T02:28:06.722Z,91.16
2018-04-14T02:30:36.815Z,91.45
2018-04-14T02:33:05.099Z,91.63
2018-04-14T02:35:33.373Z,91.62
2018-04-14T02:38:02.433Z,91.70
2018-04-14T02:40:31.479Z,91.90
2018-04-14T02:43:00.132Z,91.64
2018-04-14T02:45:28.639Z,91.95
2018-04-14T02:47:57.030Z,91.81
2018-04-14T02:50:25.664Z,91.93
2018-04-14T02:52:55.032Z,92.01
2018-04-14T02:55:24.158Z,91.93
2018-04-14T02:57:53.463Z,91.85
2018-04-14T03:00:23.645Z,91.75
2018-04-14T03:02:51.930Z,92.12
2018-04-14T03:05:21.309Z,92.09
2018-04-14T03:07:50.099Z,92.10
2018-04-14T03:10:18.624Z,92.33
2018-04-14T03:12:47.785Z,92.41
2018-04-14T03:15:16.095Z,92.15
2018-04-14T03:17:45.103Z,92.14
2018-04-14T03:20:15.599Z,92.02
2018-04-14T03:22:43.945Z,92.14
2018-04-14T03:25:12.711Z,92.03
2018-04-14T03:27:41.755Z,92.35
2018-04-14T03:30:10.589Z,91.94
2018-04-14T03:32:39.843Z,92.06
2018-04-14T03:35:08.114Z,92.23
2018-04-14T03:37:37.236Z,92.36
2018-04-14T03:40:05.603Z,92.40
2018-04-14T03:42:35.189Z,92.32
2018-04-14T03:45:04.532Z,92.29
2018-04-14T03:47:33.129Z,92.54
2018-04-14T03:50:01.971Z,92.60
2018-04-14T03:52:30.251Z,92.36
2018-04-14T03:54:59.852Z,92.65
2018-04-14T03:57:28.128Z,92.29
2018-04-14T03:59:56.914Z,92.49
2018-04-14T04:02:25.307Z,92.39
2018-04-14T04:04:53.583Z,92.37
2018-04-14T04:07:21.871Z,92.41
2018-04-14T04:09:50.245Z,92.26
2018-04-14T04:12:18.834Z,92.31
2018-04-14T04:14:47.570Z,92.71
2018-04-14T04:17:15.885Z,92.80
2018-04-14T04:20:01.781Z,92.82
2018-04-14T04:22:47.743Z,92.84
2018-04-14T04:25:31.102Z,92.73
2018-04-14T04:28:00.593Z,92.83
2018-04-14T04:30:28.862Z,92.69
2018-04-14T04:32:57.912Z,92.97
2018-04-14T04:35:27.239Z,93.01
2018-04-14T04:37:57.407Z,93.06
2018-04-14T04:40:26.627Z,92.87
2018-04-14T04:42:56.724Z,92.92
2018-04-14T04:45:25.907Z,93.25
2018-04-14T04:47:54.319Z,93.19
2018-04-14T04:50:22.619Z,93.07
2018-04-14T04:52:50.900Z,93.28
2018-04-14T04:55:19.179Z,93.24
2018-04-14T04:57:47.506Z,93.11
2018-04-14T05:00:17.351Z,93.13
2018-04-14T05:02:45.627Z,93.24
2018-04-14T05:05:13.922Z,93.41
2018-04-14T05:07:42.219Z,93.40
2018-04-14T05:10:10.526Z,93.43
2018-04-14T05:12:39.879Z,93.38
2018-04-14T05:15:08.146Z,93.38
2018-04-14T05:17:36.987Z,93.16
2018-04-14T05:20:06.220Z,93.13
2018-04-14T05:22:35.363Z,93.14
2018-04-14T05:25:04.915Z,92.80
2018-04-14T05:27:33.922Z,92.28
2018-04-14T05:30:03.799Z,92.37
2018-04-14T05:32:34.780Z,92.66
2018-04-14T05:35:03.061Z,92.64
2018-04-14T05:37:32.352Z,92.04
2018-04-14T05:40:00.638Z,92.35
2018-04-14T05:42:28.906Z,92.13
2018-04-14T05:44:57.191Z,92.10
2018-04-14T05:47:26.499Z,92.12
2018-04-14T05:49:54.783Z,91.98
2018-04-14T05:52:23.251Z,91.81
2018-04-14T05:54:51.952Z,91.89
2018-04-14T05:57:20.730Z,91.52
2018-04-14T05:59:49.043Z,91.66
2018-04-14T06:02:18.123Z,91.38
2018-04-14T06:04:47.257Z,91.69
2018-04-14T06:07:18.482Z,91.57
2018-04-14T06:09:47.471Z,91.53
2018-04-14T06:12:18.354Z,91.60
2018-04-14T06:14:47.490Z,91.70
2018-04-14T06:17:15.758Z,91.91
2018-04-14T06:19:44.947Z,92.03
2018-04-14T06:22:13.285Z,92.08
2018-04-14T06:24:41.549Z,91.89
2018-04-14T06:27:09.833Z,91.68
2018-04-14T06:29:38.273Z,91.54
2018-04-14T06:32:07.320Z,91.47
2018-04-14T06:34:36.091Z,91.29
2018-04-14T06:37:04.847Z,91.17
2018-04-14T06:39:33.168Z,91.17
2018-04-14T06:42:03.437Z,91.27
2018-04-14T06:44:32.160Z,91.20
2018-04-14T06:47:00.419Z,91.47
2018-04-14T06:49:28.811Z,91.46
2018-04-14T06:51:57.725Z,91.50
2018-04-14T06:54:26.327Z,91.18
2018-04-14T06:56:56.628Z,90.77
2018-04-14T06:59:24.910Z,90.75
2018-04-14T07:01:53.607Z,90.65
2018-04-14T07:04:23.290Z,91.17
2018-04-14T07:06:51.868Z,90.91
2018-04-14T07:09:20.558Z,90.60
2018-04-14T07:11:48.838Z,90.46
2018-04-14T07:14:17.515Z,90.74
2018-04-14T07:16:45.914Z,90.50
2018-04-14T07:19:14.509Z,90.09
2018-04-14T07:21:43.439Z,89.84
2018-04-14T07:24:11.887Z,90.20
2018-04-14T07:26:40.695Z,90.18
2018-04-14T07:29:09.108Z,90.48
2018-04-14T07:31:37.520Z,90.50
2018-04-14T07:34:05.903Z,90.78
2018-04-14T07:36:35.134Z,90.66
2018-04-14T07:39:04.723Z,90.89
2018-04-14T07:41:33.010Z,91.04
2018-04-14T07:44:01.270Z,90.86
2018-04-14T07:46:29.711Z,90.78
2018-04-14T07:48:59.490Z,90.64
2018-04-14T07:51:28.543Z,90.61
2018-04-14T07:53:56.851Z,89.68
2018-04-14T07:56:25.743Z,90.06
2018-04-14T07:58:54.239Z,89.22
2018-04-14T08:01:23.598Z,89.11
2018-04-14T08:03:52.581Z,88.56
2018-04-14T08:06:20.864Z,88.96
2018-04-14T08:08:49.811Z,88.66
2018-04-14T08:11:19.804Z,88.62
2018-04-14T08:13:48.086Z,88.78
2018-04-14T08:16:16.547Z,89.15
2018-04-14T08:18:44.834Z,88.10
2018-04-14T08:21:13.142Z,87.77
2018-04-14T08:23:41.473Z,87.42
2018-04-14T08:26:10.499Z,87.86
2018-04-14T08:28:39.527Z,87.77
2018-04-14T08:31:07.954Z,87.44
2018-04-14T08:33:37.865Z,88.03
2018-04-14T08:36:07.083Z,87.89
2018-04-14T08:38:35.351Z,87.92
2018-04-14T08:41:03.628Z,88.02
2018-04-14T08:43:33.096Z,88.31
2018-04-14T08:46:03.306Z,88.86
2018-04-14T08:48:31.583Z,88.55
2018-04-14T08:51:00.647Z,88.94
2018-04-14T08:53:28.942Z,89.26
2018-04-14T08:55:59.030Z,89.68
2018-04-14T08:58:27.384Z,89.33
2018-04-14T09:00:55.934Z,89.19
2018-04-14T09:03:25.778Z,89.83
2018-04-14T09:05:54.058Z,89.94
2018-04-14T09:08:23.379Z,89.93
2018-04-14T09:10:52.457Z,90.22
2018-04-14T09:13:20.775Z,90.33
2018-04-14T09:15:51.912Z,90.28
2018-04-14T09:18:22.038Z,90.95
2018-04-14T09:20:50.307Z,90.55
2018-04-14T09:23:20.499Z,91.02
2018-04-14T09:25:48.879Z,91.16
2018-04-14T09:28:18.295Z,91.91
2018-04-14T09:30:47.284Z,91.72
2018-04-14T09:33:18.562Z,92.12
2018-04-14T09:35:48.145Z,91.74
2018-04-14T09:38:16.427Z,91.96
2018-04-14T09:40:44.734Z,91.72
2018-04-14T09:43:13.198Z,91.60
2018-04-14T09:45:41.562Z,91.62
2018-04-14T09:48:09.892Z,91.82
2018-04-14T09:50:38.933Z,91.77
2018-04-14T09:53:08.055Z,92.10
2018-04-14T09:55:36.686Z,92.16
2018-04-14T09:58:04.975Z,92.01
2018-04-14T10:00:33.259Z,92.15
2018-04-14T10:03:07.172Z,92.17
2018-04-14T10:05:35.462Z,92.49
2018-04-14T10:08:04.478Z,92.42
2018-04-14T10:10:32.794Z,92.58
2018-04-14T10:13:01.845Z,92.45
2018-04-14T10:15:30.103Z,92.63
2018-04-14T10:18:00.489Z,92.50
2018-04-14T10:20:30.546Z,92.35
2018-04-14T10:22:59.784Z,92.16
2018-04-14T10:25:28.986Z,92.50
2018-04-14T10:27:57.313Z,92.33
2018-04-14T10:30:27.449Z,92.42
2018-04-14T10:32:55.916Z,92.24
2018-04-14T10:35:24.258Z,92.20
2018-04-14T10:37:52.623Z,92.52
2018-04-14T10:40:22.493Z,92.39
2018-04-14T10:42:50.807Z,92.56
2018-04-14T10:45:19.093Z,92.57
2018-04-14T10:47:47.397Z,92.73
2018-04-14T10:50:16.526Z,92.37
2018-04-14T10:52:45.443Z,92.48
2018-04-14T10:55:13.724Z,92.38
2018-04-14T10:57:42.001Z,92.73
2018-04-14T11:00:10.275Z,92.42
2018-04-14T11:02:38.542Z,92.61
2018-04-14T11:05:08.812Z,92.71
2018-04-14T11:07:37.075Z,92.91
2018-04-14T11:10:05.543Z,93.15
2018-04-14T11:12:33.837Z,92.95
2018-04-14T11:15:02.793Z,92.63
2018-04-14T11:17:31.386Z,92.98
2018-04-14T11:20:00.390Z,92.89
2018-04-14T11:22:28.757Z,92.79
2018-04-14T11:24:57.120Z,93.21
2018-04-14T11:27:25.392Z,93.07
2018-04-14T11:29:54.967Z,92.97
2018-04-14T11:32:23.314Z,92.91
2018-04-14T11:34:53.230Z,91.96
2018-04-14T11:37:23.911Z,92.65
2018-04-14T11:39:52.947Z,92.05
2018-04-14T11:42:22.486Z,92.47
2018-04-14T11:44:51.557Z,92.47
2018-04-14T11:47:19.851Z,92.78
2018-04-14T11:49:48.432Z,92.82
2018-04-14T11:52:18.070Z,93.02
2018-04-14T11:54:46.337Z,93.12
2018-04-14T11:57:14.734Z,93.02
2018-04-14T11:59:43.812Z,93.33
2018-04-14T12:02:12.359Z,93.36
2018-04-14T12:04:40.651Z,93.58
2018-04-14T12:07:09.751Z,93.69
2018-04-14T12:09:39.996Z,94.23
2018-04-14T12:12:09.033Z,94.18
2018-04-14T12:14:37.338Z,94.07
2018-04-14T12:17:05.804Z,93.90
2018-04-14T12:19:34.147Z,93.80
2018-04-14T12:22:03.178Z,94.10
2018-04-14T12:24:31.463Z,94.16
2018-04-14T12:27:01.082Z,94.15
2018-04-14T12:29:30.161Z,94.14
2018-04-14T12:31:59.283Z,94.25
2018-04-14T12:34:27.646Z,94.30
2018-04-14T12:36:56.057Z,94.53
2018-04-14T12:39:25.143Z,94.49
2018-04-14T12:41:53.861Z,94.42
2018-04-14T12:44:22.755Z,93.80
2018-04-14T12:46:51.376Z,94.10
2018-04-14T12:49:19.688Z,94.01
2018-04-14T12:51:50.176Z,93.24
2018-04-14T12:54:18.643Z,93.05
2018-04-14T12:56:47.831Z,93.39
2018-04-14T12:59:16.150Z,93.31
2018-04-14T13:01:44.449Z,93.61
2018-04-14T13:04:13.539Z,93.75
2018-04-14T13:06:41.924Z,94.03
2018-04-14T13:09:11.889Z,93.56
2018-04-14T13:11:41.872Z,93.52
2018-04-14T13:14:10.480Z,93.96
2018-04-14T13:16:38.779Z,93.90
2018-04-14T13:19:07.208Z,93.82
2018-04-14T13:21:35.496Z,93.87
2018-04-14T13:24:04.182Z,94.01
2018-04-14T13:26:33.092Z,93.98
2018-04-14T13:29:01.411Z,93.86
2018-04-14T13:31:29.696Z,94.15
2018-04-14T13:33:58.514Z,93.93
2018-04-14T13:36:26.923Z,93.96
2018-04-14T13:38:55.191Z,93.66
2018-04-14T13:41:23.506Z,93.68
2018-04-14T13:43:53.450Z,93.89
2018-04-14T13:46:21.724Z,93.75
2018-04-14T13:48:50.112Z,93.45
2018-04-14T13:51:18.428Z,93.55
2018-04-14T13:53:47.411Z,93.66
2018-04-14T13:56:15.726Z,93.41
2018-04-14T13:58:44.041Z,93.89
2018-04-14T14:01:12.318Z,93.17
2018-04-14T14:03:40.798Z,93.86
2018-04-14T14:06:09.482Z,94.06
2018-04-14T14:08:37.762Z,93.92
2018-04-14T14:11:06.078Z,93.84
2018-04-14T14:13:34.345Z,94.00
2018-04-14T14:16:02.724Z,94.18
2018-04-14T14:18:32.106Z,94.31
2018-04-14T14:21:00.382Z,94.14
2018-04-14T14:23:28.655Z,94.38
2018-04-14T14:25:58.482Z,94.22
2018-04-14T14:28:26.750Z,94.28
2018-04-14T14:30:55.241Z,94.68
2018-04-14T14:33:23.518Z,95.00
2018-04-14T14:35:52.313Z,95.03
2018-04-14T14:38:20.778Z,95.18
2018-04-14T14:40:49.370Z,95.26
2018-04-14T14:43:17.652Z,95.46
2018-04-14T14:45:46.026Z,95.29
2018-04-14T14:48:14.554Z,95.11
2018-04-14T14:50:43.618Z,95.29
2018-04-14T14:53:11.927Z,95.00
2018-04-14T14:55:40.970Z,94.83
2018-04-14T14:58:09.286Z,94.71
2018-04-14T15:00:38.332Z,94.46
2018-04-14T15:03:06.807Z,94.58
2018-04-14T15:05:35.102Z,94.64
2018-04-14T15:08:03.452Z,94.69
2018-04-14T15:10:32.518Z,94.60
2018-04-14T15:13:01.631Z,94.68
2018-04-14T15:15:30.971Z,94.41
2018-04-14T15:17:59.242Z,94.61
2018-04-14T15:20:27.807Z,94.50
2018-04-14T15:22:56.987Z,94.71
2018-04-14T15:25:25.277Z,94.78
2018-04-14T15:27:54.346Z,94.77
2018-04-14T15:30:23.618Z,94.60
2018-04-14T15:32:51.916Z,94.68
2018-04-14T15:35:20.191Z,94.56
2018-04-14T15:37:48.486Z,94.63
2018-04-14T15:40:17.319Z,94.92
2018-04-14T15:42:47.249Z,94.69
2018-04-14T15:45:15.966Z,94.48
2018-04-14T15:47:44.639Z,94.54
2018-04-14T15:50:12.979Z,94.62
2018-04-14T15:52:42.006Z,94.78
2018-04-14T15:55:10.318Z,94.57
2018-04-14T15:57:38.603Z,94.30
2018-04-14T16:00:06.900Z,94.78
2018-04-14T16:02:36.049Z,94.47
2018-04-14T16:05:04.344Z,94.59
2018-04-14T16:07:32.610Z,94.86
2018-04-14T16:10:01.300Z,94.78
2018-04-14T16:12:29.925Z,94.81
2018-04-14T16:14:59.067Z,94.81
2018-04-14T16:17:28.145Z,94.62
2018-04-14T16:19:56.430Z,94.74
2018-04-14T16:22:24.727Z,94.87
2018-04-14T16:24:53.791Z,94.92
2018-04-14T16:27:22.068Z,94.75
2018-04-14T16:29:50.350Z,94.93
2018-04-14T16:32:18.745Z,94.94
2018-04-14T16:34:47.108Z,94.82
2018-04-14T16:37:15.851Z,94.94
2018-04-14T16:39:44.567Z,94.93
2018-04-14T16:42:13.629Z,95.28
2018-04-14T16:44:42.554Z,95.54
2018-04-14T16:47:10.890Z,95.45
2018-04-14T16:49:39.199Z,95.18
2018-04-14T16:52:08.248Z,94.95
2018-04-14T16:54:36.562Z,95.15
2018-04-14T16:57:04.854Z,95.07
2018-04-14T16:59:34.748Z,94.73
2018-04-14T17:02:03.042Z,94.72
2018-04-14T17:04:33.631Z,94.63
2018-04-14T17:07:01.939Z,94.81
2018-04-14T17:09:30.995Z,94.94
2018-04-14T17:11:59.334Z,94.85
2018-04-14T17:14:29.044Z,94.74
2018-04-14T17:16:58.836Z,94.87
2018-04-14T17:19:27.911Z,94.54
2018-04-14T17:21:56.324Z,94.50
2018-04-14T17:24:25.306Z,94.93
2018-04-14T17:26:55.490Z,94.51
2018-04-14T17:29:23.750Z,94.50
2018-04-14T17:31:53.606Z,94.52
2018-04-14T17:34:21.879Z,93.91
2018-04-14T17:36:50.454Z,94.15
2018-04-14T17:39:19.746Z,94.23
2018-04-14T17:41:48.131Z,94.26
2018-04-14T17:44:16.455Z,94.33
2018-04-14T17:46:45.038Z,94.50
2018-04-14T17:49:13.900Z,94.74
2018-04-14T17:51:42.903Z,94.67
2018-04-14T17:54:11.985Z,94.96
2018-04-14T17:56:40.266Z,94.89
2018-04-14T17:59:08.553Z,94.82
2018-04-14T18:01:37.153Z,94.96
2018-04-14T18:04:05.488Z,94.97
2018-04-14T18:06:34.946Z,94.85
2018-04-14T18:09:04.105Z,95.13
2018-04-14T18:11:33.118Z,94.84
2018-04-14T18:14:02.018Z,94.87
2018-04-14T18:16:30.991Z,94.66
2018-04-14T18:18:59.293Z,94.22
2018-04-14T18:21:27.770Z,94.55
2018-04-14T18:23:56.067Z,94.31
2018-04-14T18:26:24.527Z,94.18
2018-04-14T18:28:52.894Z,94.32
2018-04-14T18:31:21.180Z,94.49
2018-04-14T18:33:49.552Z,94.61
2018-04-14T18:36:18.040Z,94.68
2018-04-14T18:38:46.330Z,94.97
2018-04-14T18:41:15.246Z,94.90
2018-04-14T18:43:44.304Z,94.98
2018-04-14T18:46:12.727Z,95.10
2018-04-14T18:48:41.801Z,95.00
2018-04-14T18:51:10.083Z,94.69
2018-04-14T18:53:39.884Z,94.38
2018-04-14T18:56:08.274Z,94.71
2018-04-14T18:58:37.349Z,95.00
2018-04-14T19:01:05.654Z,94.72
2018-04-14T19:03:33.957Z,94.77
2018-04-14T19:06:03.017Z,94.83
2018-04-14T19:08:31.328Z,94.99
2018-04-14T19:11:00.396Z,95.03
2018-04-14T19:13:28.892Z,95.09
2018-04-14T19:15:58.098Z,94.71
2018-04-14T19:18:27.286Z,94.48
2018-04-14T19:20:55.691Z,94.60
2018-04-14T19:23:24.940Z,94.72
2018-04-14T19:25:53.207Z,94.25
2018-04-14T19:28:21.616Z,94.18
2018-04-14T19:30:50.363Z,94.00
2018-04-14T19:33:19.306Z,94.11
2018-04-14T19:35:47.869Z,93.76
2018-04-14T19:38:16.547Z,93.67
2018-04-14T19:40:44.844Z,93.92
2018-04-14T19:43:13.320Z,93.88
2018-04-14T19:45:42.253Z,94.05
2018-04-14T19:48:11.326Z,94.04
2018-04-14T19:50:39.607Z,93.96
2018-04-14T19:53:08.695Z,94.17
2018-04-14T19:55:36.990Z,93.88
2018-04-14T19:58:07.499Z,93.80
2018-04-14T20:00:36.179Z,93.87
2018-04-14T20:03:04.866Z,94.07
2018-04-14T20:05:33.173Z,93.76
2018-04-14T20:08:02.415Z,94.31
2018-04-14T20:10:31.321Z,94.10
2018-04-14T20:12:59.610Z,94.06
2018-04-14T20:15:27.893Z,94.20
2018-04-14T20:17:56.264Z,94.05
2018-04-14T20:20:24.536Z,94.27
2018-04-14T20:22:53.556Z,94.38
2018-04-14T20:25:21.866Z,94.26
2018-04-14T20:27:50.163Z,94.56
2018-04-14T20:30:18.450Z,94.43
2018-04-14T20:32:46.832Z,94.35
2018-04-14T20:35:15.111Z,94.45
2018-04-14T20:37:43.390Z,94.49
2018-04-14T20:40:11.677Z,94.51
2018-04-14T20:42:40.080Z,94.38
2018-04-14T20:45:08.683Z,94.30
2018-04-14T20:47:37.747Z,94.19
2018-04-14T20:50:06.331Z,94.45
2018-04-14T20:52:35.122Z,94.47
2018-04-14T20:55:03.436Z,94.28
2018-04-14T20:57:32.517Z,94.10
2018-04-14T21:00:00.812Z,93.83
2018-04-14T21:02:30.279Z,94.17
2018-04-14T21:04:58.595Z,94.29
2018-04-14T21:07:28.799Z,94.64
2018-04-14T21:09:57.324Z,94.38
2018-04-14T21:12:25.604Z,94.62
2018-04-14T21:14:53.908Z,94.59
2018-04-14T21:17:22.727Z,94.79
2018-04-14T21:19:51.013Z,94.81
2018-04-14T21:22:20.084Z,94.70
2018-04-14T21:24:48.509Z,94.77
2018-04-14T21:27:17.549Z,94.67
2018-04-14T21:29:45.934Z,94.83
2018-04-14T21:32:15.103Z,94.95
2018-04-14T21:34:44.550Z,94.96
2018-04-14T21:37:13.480Z,95.00
2018-04-14T21:39:42.541Z,94.79
2018-04-14T21:42:11.012Z,94.64
2018-04-14T21:44:40.523Z,94.73
2018-04-14T21:47:09.683Z,94.93
2018-04-14T21:49:37.978Z,94.89
2018-04-14T21:52:06.480Z,94.99
2018-04-14T21:54:35.688Z,95.08
2018-04-14T21:57:04.324Z,95.16
2018-04-14T21:59:32.623Z,95.28
2018-04-14T22:02:00.912Z,95.31
2018-04-14T22:04:29.173Z,95.28
2018-04-14T22:06:57.469Z,95.36
2018-04-14T22:09:26.500Z,95.38
2018-04-14T22:11:55.559Z,95.38
2018-04-14T22:14:34.095Z,95.40
2018-04-14T22:17:02.395Z,95.37
2018-04-14T22:19:31.447Z,95.43
2018-04-14T22:22:00.042Z,95.40
2018-04-14T22:24:28.991Z,95.50
2018-04-14T22:26:58.144Z,95.43
2018-04-14T22:29:27.418Z,95.35
2018-04-14T22:31:56.219Z,94.89
2018-04-14T22:34:25.355Z,95.12
2018-04-14T22:36:54.506Z,95.27
2018-04-14T22:39:23.255Z,95.26
2018-04-14T22:41:53.122Z,95.28
2018-04-14T22:44:21.618Z,95.16
2018-04-14T22:46:50.883Z,95.33
2018-04-14T22:49:19.163Z,95.19
2018-04-14T22:51:47.620Z,95.26
2018-04-14T22:54:16.653Z,95.28
2018-04-14T22:56:45.009Z,95.19
2018-04-14T22:59:14.188Z,95.19
2018-04-14T23:01:44.136Z,95.30
2018-04-14T23:04:12.818Z,95.25
2018-04-14T23:06:42.143Z,95.32
2018-04-14T23:09:10.796Z,95.29
2018-04-14T23:11:39.202Z,95.36
2018-04-14T23:14:07.474Z,95.33
2018-04-14T23:16:36.129Z,95.32
2018-04-14T23:19:04.458Z,95.45
2018-04-14T23:21:32.828Z,95.35
2018-04-14T23:24:01.212Z,95.36
2018-04-14T23:26:30.317Z,95.40
2018-04-14T23:28:58.600Z,95.43
2018-04-14T23:31:27.353Z,95.50
2018-04-14T23:33:56.399Z,95.53
2018-04-14T23:36:25.539Z,95.52
2018-04-14T23:38:53.975Z,95.52
2018-04-14T23:41:22.550Z,95.64
2018-04-14T23:43:50.838Z,95.60
2018-04-14T23:46:19.261Z,95.66
2018-04-14T23:48:47.743Z,95.68
2018-04-14T23:51:16.019Z,95.64
2018-04-14T23:53:45.219Z,95.71
2018-04-14T23:56:13.490Z,95.71
2018-04-14T23:58:42.693Z,95.65
